Latest Weather Observations for Arlington Reef

IDQ60801

Issued at 6:32 pm EST Tuesday 27 June 2017 (issued every 30 minutes, with the page automatically refreshed every 10 minutes)

About weather observations | Map of weather stations | Latest weather observations for QLD | Other Formats
Station Details ID: 200879 Name: ARLINGTON REEF Lat: -16.72 Lon: 146.11 Height: 0.0 m
Data from the previous 72 hours. | See also: Recent months at Arlington Reef
Date/Time
EST
Temp
°C
App
Temp
°C
Dew
Point
°C
Rel
Hum
%
Delta-T
°C
Wind Press
QNH
hPa
Press
MSL
hPa
Rain since
9am
mm
Dir  Spd
km/h
Gust
km/h
Spd
kts
Gust
kts
27/06:30pm - - - - - SE 30 37 16 20 1016.9 1016.9 -
27/06:00pm - - - - - SE 28 32 15 17 1016.8 1016.8 -
27/05:30pm - - - - - SE 26 32 14 17 1016.7 1016.7 -
27/05:00pm - - - - - SE 28 33 15 18 1016.6 1016.6 -
27/04:30pm - - - - - SE 28 33 15 18 1016.6 1016.6 -
27/04:00pm - - - - - SE 28 32 15 17 1016.4 1016.4 -
27/03:30pm - - - - - SE 30 35 16 19 1016.3 1016.3 -
27/03:00pm - - - - - SE 30 33 16 18 1016.3 1016.3 -
27/02:30pm - - - - - SE 30 35 16 19 1016.4 1016.4 -
27/02:00pm - - - - - SE 28 32 15 17 1016.6 1016.6 -
27/01:30pm - - - - - SE 22 26 12 14 1016.6 1016.6 -
27/01:00pm - - - - - SE 24 30 13 16 1016.9 1016.9 -
27/12:30pm - - - - - SE 24 28 13 15 1017.3 1017.3 -
27/12:00pm - - - - - SE 24 30 13 16 1017.7 1017.7 -
27/11:30am - - - - - SE 26 30 14 16 1017.8 1017.8 -
27/11:00am - - - - - SE 24 28 13 15 1018.1 1018.1 -
27/10:30am - - - - - SE 24 28 13 15 1018.1 1018.1 -
27/10:00am - - - - - SE 26 28 14 15 1018.1 1018.1 -
27/09:30am - - - - - SE 28 33 15 18 1018.0 1018.0 -
27/09:00am - - - - - SE 32 37 17 20 1017.9 1017.9 -
27/08:30am - - - - - SE 28 32 15 17 1017.6 1017.6 -
27/08:00am - - - - - SE 30 35 16 19 1017.4 1017.4 -
27/07:30am - - - - - SE 32 35 17 19 1017.1 1017.1 -
27/07:00am - - - - - SE 28 35 15 19 1016.9 1016.9 -
27/06:30am - - - - - SE 30 33 16 18 1016.9 1016.9 -
27/06:00am - - - - - SE 32 37 17 20 1016.5 1016.5 -
27/05:30am - - - - - SE 32 37 17 20 1016.4 1016.4 -
27/05:00am - - - - - SE 32 37 17 20 1016.5 1016.5 -
27/04:30am - - - - - ESE 33 39 18 21 1016.4 1016.4 -
27/04:00am - - - - - ESE 33 41 18 22 1016.4 1016.4 -
27/03:30am - - - - - ESE 33 39 18 21 1016.3 1016.3 -
27/03:00am - - - - - ESE 32 37 17 20 1016.5 1016.5 -
27/02:30am - - - - - ESE 35 43 19 23 1016.7 1016.7 -
27/02:00am - - - - - ESE 35 43 19 23 1016.9 1016.9 -
27/01:30am - - - - - ESE 35 43 19 23 1017.0 1017.0 -
27/01:00am - - - - - ESE 37 43 20 23 1017.3 1017.3 -
27/12:30am - - - - - ESE 37 43 20 23 1017.4 1017.4 -
27/12:00am - - - - - ESE 39 46 21 25 1017.4 1017.4 -
 
Date/Time
EST
Temp
°C
App
Temp
°C
Dew
Point
°C
Rel
Hum
%
Delta-T
°C
Wind Press
QNH
hPa
Press
MSL
hPa
Rain since
9am
mm
Dir  Spd
km/h
Gust
km/h
Spd
kts
Gust
kts
26/11:30pm - - - - - ESE 37 44 20 24 1017.7 1017.7 -
26/11:00pm - - - - - ESE 37 44 20 24 1017.9 1017.9 -
26/10:30pm - - - - - SE 35 44 19 24 1017.9 1017.9 -
26/10:00pm - - - - - SE 37 46 20 25 1017.8 1017.8 -
26/09:30pm - - - - - SE 33 39 18 21 1017.9 1017.9 -
26/09:00pm - - - - - SE 33 41 18 22 1017.5 1017.5 -
26/08:30pm - - - - - SE 37 44 20 24 1017.5 1017.5 -
26/08:00pm - - - - - SE 33 43 18 23 1017.2 1017.2 -
26/07:30pm - - - - - SE 32 43 17 23 1017.2 1017.2 -
26/07:17pm - - - - - SSE 26 48 14 26 1017.1 1017.1 -
26/07:00pm - - - - - SSE 24 28 13 15 1016.9 1016.9 -
26/06:30pm - - - - - SSE 37 44 20 24 1016.6 1016.6 -
26/06:00pm - - - - - SE 33 39 18 21 1016.4 1016.4 -
26/05:30pm - - - - - SSE 32 37 17 20 1016.4 1016.4 -
26/05:00pm - - - - - SSE 32 35 17 19 1016.2 1016.2 -
26/04:30pm - - - - - SSE 30 35 16 19 1016.1 1016.1 -
26/04:00pm - - - - - SSE 26 30 14 16 1016.0 1016.0 -
26/03:30pm - - - - - SSE 30 35 16 19 1016.1 1016.1 -
26/03:00pm - - - - - SSE 28 33 15 18 1016.1 1016.1 -
26/02:38pm - - - - - SSE 35 43 19 23 1016.1 1016.1 -
26/02:30pm - - - - - SSE 28 33 15 18 1016.0 1016.0 -
26/02:00pm - - - - - S 32 35 17 19 1016.2 1016.2 -
26/01:30pm - - - - - SSE 32 35 17 19 1016.3 1016.3 -
26/01:00pm - - - - - SSE 32 37 17 20 1016.6 1016.6 -
26/12:30pm - - - - - SSE 33 39 18 21 1016.9 1016.9 -
26/12:00pm - - - - - SSE 28 33 15 18 1017.4 1017.4 -
26/11:30am - - - - - SSE 30 33 16 18 1017.6 1017.6 -
26/11:00am - - - - - SSE 28 32 15 17 1017.7 1017.7 -
26/10:30am - - - - - SE 30 33 16 18 1017.7 1017.7 -
26/10:00am - - - - - SE 30 35 16 19 1017.8 1017.8 -
26/09:30am - - - - - SE 28 35 15 19 1017.6 1017.6 -
26/09:00am - - - - - SSE 32 44 17 24 1017.6 1017.6 -
26/08:30am - - - - - SE 41 48 22 26 1017.2 1017.2 -
26/08:00am - - - - - SE 28 33 15 18 1016.8 1016.8 -
26/07:30am - - - - - SE 28 33 15 18 1016.4 1016.4 -
26/07:00am - - - - - SE 32 37 17 20 1015.9 1015.9 -
26/06:30am - - - - - SE 24 28 13 15 1015.8 1015.8 -
26/06:00am - - - - - SE 28 32 15 17 1015.6 1015.6 -
26/05:30am - - - - - SE 30 35 16 19 1015.5 1015.5 -
26/05:00am - - - - - SE 30 35 16 19 1015.4 1015.4 -
26/04:30am - - - - - ESE 35 39 19 21 1015.2 1015.2 -
26/04:00am - - - - - SE 32 35 17 19 1015.3 1015.3 -
26/03:30am - - - - - SE 28 33 15 18 1015.4 1015.4 -
26/03:00am - - - - - SE 30 35 16 19 1015.4 1015.4 -
26/02:30am - - - - - SE 32 35 17 19 1015.6 1015.6 -
26/02:00am - - - - - SE 30 35 16 19 1015.8 1015.8 -
26/01:30am - - - - - SE 30 33 16 18 1016.1 1016.1 -
26/01:00am - - - - - SSE 32 37 17 20 1016.3 1016.3 -
26/12:30am - - - - - ESE 28 32 15 17 1016.7 1016.7 -
26/12:00am - - - - - SSE 30 35 16 19 1016.8 1016.8 -
 
Date/Time
EST
Temp
°C
App
Temp
°C
Dew
Point
°C
Rel
Hum
%
Delta-T
°C
Wind Press
QNH
hPa
Press
MSL
hPa
Rain since
9am
mm
Dir  Spd
km/h
Gust
km/h
Spd
kts
Gust
kts
25/11:30pm - - - - - SSE 35 41 19 22 1016.9 1016.9 -
25/11:00pm - - - - - SSE 33 39 18 21 1016.8 1016.8 -
25/10:30pm - - - - - SSE 33 39 18 21 1016.8 1016.8 -
25/10:00pm - - - - - SSE 37 44 20 24 1016.7 1016.7 -
25/09:30pm - - - - - SSE 37 43 20 23 1016.7 1016.7 -
25/09:00pm - - - - - SSE 39 44 21 24 1016.4 1016.4 -
25/08:30pm - - - - - SSE 39 44 21 24 1016.1 1016.1 -
25/08:00pm - - - - - SSE 37 43 20 23 1015.9 1015.9 -
25/07:30pm - - - - - SSE 33 41 18 22 1015.8 1015.8 -
25/07:00pm - - - - - SSE 33 39 18 21 1015.4 1015.4 -
25/06:30pm - - - - - SSE 33 39 18 21 1015.2 1015.2 -
25/06:00pm - - - - - SSE 35 43 19 23 1014.8 1014.8 -
25/05:30pm - - - - - SSE 33 41 18 22 1014.7 1014.7 -
25/05:00pm - - - - - SSE 33 41 18 22 1014.5 1014.5 -
25/04:30pm - - - - - SSE 37 46 20 25 1014.3 1014.3 -
25/04:00pm - - - - - SSE 33 39 18 21 1014.2 1014.2 -
25/03:30pm - - - - - S 37 43 20 23 1014.3 1014.3 -
25/03:00pm - - - - - S 33 39 18 21 1014.5 1014.5 -
25/02:30pm - - - - - S 33 39 18 21 1014.3 1014.3 -
25/02:00pm - - - - - S 35 43 19 23 1014.5 1014.5 -
25/01:30pm - - - - - S 32 37 17 20 1014.8 1014.8 -
25/01:00pm - - - - - S 30 35 16 19 1015.2 1015.2 -
25/12:30pm - - - - - S 30 35 16 19 1015.5 1015.5 -
25/12:00pm - - - - - S 32 37 17 20 1015.9 1015.9 -
25/11:30am - - - - - S 32 35 17 19 1016.2 1016.2 -
25/11:00am - - - - - S 33 37 18 20 1016.2 1016.2 -
25/10:30am - - - - - S 32 35 17 19 1016.5 1016.5 -
25/10:00am - - - - - S 30 33 16 18 1016.7 1016.7 -
25/09:30am - - - - - S 32 35 17 19 1016.6 1016.6 -
25/09:00am - - - - - S 30 35 16 19 1016.6 1016.6 -
25/08:30am - - - - - S 28 32 15 17 1016.3 1016.3 -
25/08:00am - - - - - SSW 26 30 14 16 1016.0 1016.0 -
25/07:30am - - - - - S 26 30 14 16 1015.5 1015.5 -
25/07:00am - - - - - SSE 28 32 15 17 1015.2 1015.2 -
25/06:30am - - - - - SSE 26 30 14 16 1014.9 1014.9 -
25/06:00am - - - - - SSE 22 26 12 14 1014.7 1014.7 -
25/05:30am - - - - - SSE 24 26 13 14 1014.6 1014.6 -
25/05:00am - - - - - SSE 28 30 15 16 1014.4 1014.4 -
25/04:30am - - - - - SE 26 32 14 17 1014.4 1014.4 -
25/04:00am - - - - - SE 28 32 15 17 1014.3 1014.3 -
25/03:30am - - - - - S 20 24 11 13 1014.3 1014.3 -
25/03:00am - - - - - SSE 26 33 14 18 1014.5 1014.5 -
25/02:30am - - - - - S 22 28 12 15 1014.8 1014.8 -
25/02:00am - - - - - SE 22 28 12 15 1015.0 1015.0 -
25/01:30am - - - - - SE 33 41 18 22 1015.3 1015.3 -
25/01:00am - - - - - SSE 32 37 17 20 1015.6 1015.6 -
25/12:30am - - - - - SE 32 37 17 20 1015.6 1015.6 -
25/12:00am - - - - - SSE 33 39 18 21 1015.7 1015.7 -
 
Date/Time
EST
Temp
°C
App
Temp
°C
Dew
Point
°C
Rel
Hum
%
Delta-T
°C
Wind Press
QNH
hPa
Press
MSL
hPa
Rain since
9am
mm
Dir  Spd
km/h
Gust
km/h
Spd
kts
Gust
kts
24/11:30pm - - - - - SSE 30 35 16 19 1015.7 1015.7 -
24/11:00pm - - - - - S 30 35 16 19 1015.7 1015.7 -
24/10:30pm - - - - - S 28 32 15 17 1015.7 1015.7 -
24/10:00pm - - - - - S 32 35 17 19 1015.7 1015.7 -
24/09:30pm - - - - - S 30 35 16 19 1015.7 1015.7 -
24/09:00pm - - - - - SSE 32 37 17 20 1015.5 1015.5 -
24/08:30pm - - - - - S 33 41 18 22 1015.3 1015.3 -
24/08:00pm - - - - - S 37 43 20 23 1015.1 1015.1 -
24/07:30pm - - - - - SSW 30 35 16 19 1015.1 1015.1 -
24/07:00pm - - - - - SSE 35 43 19 23 1015.2 1015.2 -

Other Formats:

Comma delimited format used in spreadsheet applications
http://www.bom.gov.au/fwo/IDQ60801/IDQ60801.94284.axf

JavaScript Object Notation format (JSON) in row-major order
http://www.bom.gov.au/fwo/IDQ60801/IDQ60801.94284.json